Time;durP1;ratioP1;P1;durP2;ratioP2;P2;SDS_P1;SDS_P2;PMS_P1;PMS_P2;Temp;Humidity;BMP_temperature;BMP_pressure;BME280_temperature;BME280_humidity;BME280_pressure;Samples;Min_cycle;Max_cycle;Signal;HPM_P1;HPM_P2
2021/09/19 00:02:14;;;;;;;0.40;0.20;;;14.00;99.90;;;;;;5032800;28;20379;-71
2021/09/19 00:04:39;;;;;;;0.40;0.27;;;14.00;99.90;;;;;;5032036;28;20442;-70
2021/09/19 00:07:05;;;;;;;0.40;0.20;;;13.90;99.90;;;;;;5026274;28;20935;-70
2021/09/19 00:09:32;;;;;;;0.40;0.30;;;13.90;99.90;;;;;;5011824;28;20428;-70
2021/09/19 00:11:57;;;;;;;0.40;0.30;;;14.00;99.90;;;;;;5012588;28;20419;-70
2021/09/19 00:14:23;;;;;;;0.40;0.20;;;13.80;99.90;;;;;;5011456;28;20436;-71
2021/09/19 00:16:49;;;;;;;0.40;0.30;;;13.80;99.90;;;;;;5012464;28;20411;-71
2021/09/19 00:19:15;;;;;;;0.40;0.30;;;13.80;99.90;;;;;;5012455;28;20459;-71
2021/09/19 00:21:41;;;;;;;0.40;0.20;;;13.80;99.90;;;;;;5012027;28;20456;-70
2021/09/19 00:24:07;;;;;;;0.40;0.20;;;13.80;99.90;;;;;;5011690;28;20741;-72
2021/09/19 00:26:33;;;;;;;0.40;0.30;;;13.80;99.90;;;;;;5011862;28;20435;-71
2021/09/19 00:28:59;;;;;;;0.40;0.20;;;13.80;99.90;;;;;;5012392;28;20411;-71
2021/09/19 00:31:25;;;;;;;0.40;0.20;;;13.90;99.90;;;;;;5011552;28;20381;-71
2021/09/19 00:33:50;;;;;;;0.40;0.30;;;13.90;99.90;;;;;;5012575;28;20411;-71
2021/09/19 00:36:16;;;;;;;0.40;0.20;;;14.00;99.90;;;;;;5012292;28;20439;-71
2021/09/19 00:38:42;;;;;;;0.40;0.20;;;14.00;99.90;;;;;;5011526;28;20872;-71
2021/09/19 00:41:07;;;;;;;0.40;0.30;;;14.00;99.90;;;;;;5012093;28;20404;-71
2021/09/19 00:43:33;;;;;;;0.40;0.20;;;14.00;99.90;;;;;;5011531;28;20377;-71
2021/09/19 00:45:59;;;;;;;0.40;0.20;;;13.90;99.90;;;;;;5012141;28;20773;-71
2021/09/19 00:48:24;;;;;;;0.40;0.20;;;13.90;99.90;;;;;;5011451;28;20868;-73
2021/09/19 00:50:50;;;;;;;0.40;0.20;;;13.90;99.90;;;;;;5012112;28;20377;-71
2021/09/19 00:53:16;;;;;;;0.40;0.30;;;13.90;99.90;;;;;;5011901;28;20481;-71
2021/09/19 00:55:43;;;;;;;0.40;0.30;;;13.90;99.90;;;;;;5011429;28;20484;-71
2021/09/19 00:58:11;;;;;;;0.40;0.20;;;13.80;99.90;;;;;;5011694;28;20471;-72
2021/09/19 01:00:37;;;;;;;0.40;0.30;;;13.80;99.90;;;;;;5011246;28;20385;-71
2021/09/19 01:03:04;;;;;;;0.40;0.30;;;13.70;99.90;;;;;;5011829;28;20492;-72
2021/09/19 01:05:30;;;;;;;0.40;0.30;;;13.80;99.90;;;;;;5011340;28;20385;-71
2021/09/19 01:07:56;;;;;;;0.40;0.30;;;13.90;99.90;;;;;;5024506;28;20398;-71
2021/09/19 01:10:24;;;;;;;0.40;0.30;;;13.90;99.90;;;;;;5031593;28;20870;-71
2021/09/19 01:12:55;;;;;;;0.40;0.20;;;13.90;99.90;;;;;;5030694;28;20410;-71
2021/09/19 01:15:21;;;;;;;0.40;0.20;;;13.80;99.90;;;;;;5031058;28;20739;-71
2021/09/19 01:17:47;;;;;;;0.40;0.30;;;13.80;99.90;;;;;;5030527;28;20403;-71
2021/09/19 01:20:14;;;;;;;0.40;0.30;;;13.80;99.90;;;;;;5031062;28;20387;-71
2021/09/19 01:22:44;;;;;;;0.40;0.30;;;13.80;99.90;;;;;;5030659;28;20452;-71
2021/09/19 01:25:12;;;;;;;0.40;0.20;;;13.80;99.90;;;;;;5030972;28;20390;-71
2021/09/19 01:27:37;;;;;;;0.40;0.20;;;13.70;99.90;;;;;;5030082;28;20395;-71
2021/09/19 01:30:08;;;;;;;0.40;0.25;;;13.70;99.90;;;;;;5031039;28;20437;-71
2021/09/19 01:32:33;;;;;;;0.40;0.20;;;13.70;99.90;;;;;;5030540;28;20368;-71
2021/09/19 01:35:00;;;;;;;0.40;0.20;;;13.60;99.90;;;;;;5030670;28;20386;-71
2021/09/19 01:37:25;;;;;;;0.40;0.22;;;13.80;99.90;;;;;;5030941;28;20395;-71
2021/09/19 01:39:52;;;;;;;0.40;0.20;;;13.70;99.90;;;;;;5030287;28;20390;-71
2021/09/19 01:42:18;;;;;;;0.40;0.20;;;13.80;99.90;;;;;;5030658;28;20520;-71
2021/09/19 01:44:44;;;;;;;0.40;0.30;;;13.80;99.90;;;;;;5030239;28;20508;-71
2021/09/19 01:47:09;;;;;;;0.40;0.20;;;13.80;99.90;;;;;;5031297;28;20840;-69
2021/09/19 01:49:35;;;;;;;0.40;0.30;;;13.80;99.90;;;;;;5030140;28;20839;-70
2021/09/19 01:52:01;;;;;;;0.40;0.30;;;13.70;99.90;;;;;;5030681;28;20403;-70
2021/09/19 01:54:28;;;;;;;0.40;0.30;;;13.60;99.90;;;;;;5030781;28;20800;-70
2021/09/19 01:56:53;;;;;;;0.40;0.30;;;13.50;99.90;;;;;;5030782;28;20474;-70
2021/09/19 01:59:19;;;;;;;0.40;0.20;;;13.50;99.90;;;;;;5030608;28;20482;-71
2021/09/19 02:01:45;;;;;;;0.40;0.30;;;13.40;99.90;;;;;;5030145;28;20497;-71
2021/09/19 02:04:10;;;;;;;0.40;0.30;;;13.30;99.90;;;;;;5030521;28;20426;-71
2021/09/19 02:06:36;;;;;;;0.40;0.30;;;13.40;99.90;;;;;;5027522;28;20382;-71
2021/09/19 02:09:02;;;;;;;0.40;0.30;;;13.50;99.90;;;;;;5010861;28;20830;-71
2021/09/19 02:11:28;;;;;;;0.40;0.30;;;13.50;99.90;;;;;;5010911;28;20487;-70
2021/09/19 02:13:54;;;;;;;0.40;0.20;;;13.50;99.90;;;;;;5009796;28;20944;-71
2021/09/19 02:16:23;;;;;;;0.40;0.30;;;13.50;99.90;;;;;;5010907;28;20369;-70
2021/09/19 02:18:50;;;;;;;0.40;0.20;;;13.60;99.90;;;;;;5010088;28;20402;-70
2021/09/19 02:21:17;;;;;;;0.40;0.30;;;13.60;99.90;;;;;;4992998;28;20395;-70
2021/09/19 02:23:42;;;;;;;0.40;0.20;;;13.50;99.90;;;;;;5010229;28;20396;-71
2021/09/19 02:26:08;;;;;;;0.40;0.30;;;13.50;99.90;;;;;;5010732;28;20419;-70
2021/09/19 02:28:35;;;;;;;0.40;0.30;;;13.40;99.90;;;;;;5009940;28;20830;-71
2021/09/19 02:31:01;;;;;;;0.40;0.30;;;13.30;99.90;;;;;;5010663;28;20376;-71
2021/09/19 02:33:26;;;;;;;0.40;0.30;;;13.40;99.90;;;;;;5010694;28;20383;-71
2021/09/19 02:35:52;;;;;;;0.40;0.30;;;13.40;99.90;;;;;;5010056;28;20817;-71
2021/09/19 02:38:18;;;;;;;0.40;0.30;;;13.40;99.90;;;;;;5010415;28;20508;-71
2021/09/19 02:40:44;;;;;;;0.40;0.20;;;13.40;99.90;;;;;;5009930;28;20392;-71
2021/09/19 02:43:10;;;;;;;0.40;0.20;;;13.40;99.90;;;;;;5010797;28;20470;-71
2021/09/19 02:45:35;;;;;;;0.40;0.30;;;13.40;99.90;;;;;;5009937;28;20393;-71
2021/09/19 02:48:01;;;;;;;0.40;0.20;;;13.40;99.90;;;;;;5013398;28;20443;-71
2021/09/19 02:50:27;;;;;;;0.40;0.20;;;13.20;99.90;;;;;;5014182;28;20399;-71
2021/09/19 02:52:53;;;;;;;0.40;0.30;;;13.20;99.90;;;;;;5013591;28;20496;-70
2021/09/19 02:55:20;;;;;;;0.40;0.30;;;13.30;99.90;;;;;;5014184;28;20772;-71
2021/09/19 02:57:46;;;;;;;0.40;0.30;;;13.10;99.90;;;;;;5013341;28;20404;-71
2021/09/19 03:00:16;;;;;;;0.40;0.20;;;13.00;99.90;;;;;;5014044;28;20381;-71
2021/09/19 03:02:42;;;;;;;0.40;0.20;;;12.90;99.90;;;;;;5013367;28;20388;-71
2021/09/19 03:05:09;;;;;;;0.40;0.20;;;12.80;99.90;;;;;;5013610;28;20373;-71
2021/09/19 03:07:35;;;;;;;0.40;0.20;;;12.90;99.90;;;;;;5023724;28;20922;-71
2021/09/19 03:10:01;;;;;;;0.40;0.30;;;12.90;99.90;;;;;;5033259;28;20384;-71
2021/09/19 03:12:26;;;;;;;0.40;0.20;;;12.80;99.90;;;;;;5033269;28;20739;-71
2021/09/19 03:14:52;;;;;;;0.40;0.20;;;12.60;99.90;;;;;;5032914;28;20803;-71
2021/09/19 03:17:17;;;;;;;0.40;0.30;;;12.50;99.90;;;;;;5033362;28;20873;-71
2021/09/19 03:19:43;;;;;;;0.40;0.30;;;12.40;99.90;;;;;;5015091;28;20446;-71
2021/09/19 03:22:09;;;;;;;0.40;0.20;;;12.40;99.90;;;;;;5033414;28;20699;-71
2021/09/19 03:24:34;;;;;;;0.40;0.20;;;12.50;99.90;;;;;;5015181;28;20379;-72
2021/09/19 03:27:00;;;;;;;0.40;0.20;;;12.50;99.90;;;;;;5033327;28;20732;-71
2021/09/19 03:29:26;;;;;;;0.40;0.20;;;12.40;99.90;;;;;;5033007;28;20387;-71
2021/09/19 03:31:51;;;;;;;0.40;0.30;;;12.60;99.90;;;;;;5032556;28;20390;-71
2021/09/19 03:34:17;;;;;;;0.40;0.30;;;12.40;99.90;;;;;;5033230;28;20458;-71
2021/09/19 03:36:42;;;;;;;0.40;0.30;;;12.50;99.90;;;;;;5032743;28;20383;-71
2021/09/19 03:39:08;;;;;;;0.40;0.20;;;12.50;99.90;;;;;;5033034;28;20442;-71
2021/09/19 03:41:34;;;;;;;0.40;0.20;;;12.40;99.90;;;;;;5032615;28;20884;-71
2021/09/19 03:44:00;;;;;;;0.40;0.20;;;12.50;99.90;;;;;;5033024;28;20380;-70
2021/09/19 03:46:26;;;;;;;0.40;0.20;;;12.60;99.90;;;;;;5032900;28;20417;-70
2021/09/19 03:48:52;;;;;;;0.40;0.20;;;12.40;99.90;;;;;;5031992;28;20394;-70
2021/09/19 03:51:18;;;;;;;0.40;0.30;;;12.40;99.90;;;;;;5032938;28;20453;-71
2021/09/19 03:53:44;;;;;;;0.40;0.30;;;12.40;99.90;;;;;;5032270;28;20562;-71
2021/09/19 03:56:09;;;;;;;0.40;0.20;;;12.30;99.90;;;;;;5032867;28;20703;-71
2021/09/19 03:58:35;;;;;;;0.40;0.20;;;12.30;99.90;;;;;;5032193;28;20413;-74
2021/09/19 04:01:01;;;;;;;0.40;0.20;;;12.30;99.90;;;;;;5032855;28;20440;-71
2021/09/19 04:03:26;;;;;;;0.40;0.23;;;12.30;99.90;;;;;;5033030;28;20385;-71
2021/09/19 04:05:52;;;;;;;0.40;0.20;;;12.30;99.90;;;;;;5032530;28;20426;-71
2021/09/19 04:08:18;;;;;;;0.40;0.20;;;12.30;99.90;;;;;;5016738;28;20388;-71
2021/09/19 04:10:43;;;;;;;0.40;0.20;;;12.40;99.90;;;;;;5012756;28;20837;-71
2021/09/19 04:13:09;;;;;;;0.40;0.23;;;12.20;99.90;;;;;;5012836;28;20413;-71
2021/09/19 04:15:34;;;;;;;0.40;0.30;;;12.10;99.90;;;;;;5013245;28;20397;-71
2021/09/19 04:18:00;;;;;;;0.40;0.20;;;12.00;99.90;;;;;;5012448;28;20400;-71
2021/09/19 04:20:25;;;;;;;0.40;0.20;;;12.10;99.90;;;;;;5013010;28;20416;-71
2021/09/19 04:22:51;;;;;;;0.40;0.20;;;12.00;99.90;;;;;;5012771;28;20381;-71
2021/09/19 04:25:17;;;;;;;0.40;0.30;;;12.10;99.90;;;;;;5013085;28;20381;-71
2021/09/19 04:27:42;;;;;;;0.40;0.20;;;12.00;99.90;;;;;;4994744;28;20391;-71
2021/09/19 04:30:08;;;;;;;0.40;0.20;;;12.00;99.90;;;;;;5013022;28;20380;-71
2021/09/19 04:32:36;;;;;;;0.40;0.20;;;11.90;99.90;;;;;;5012856;28;20462;-71
2021/09/19 04:35:02;;;;;;;0.40;0.30;;;11.90;99.90;;;;;;5012273;28;20399;-71
2021/09/19 04:37:27;;;;;;;0.40;0.20;;;11.90;99.90;;;;;;5012893;28;20780;-71
2021/09/19 04:39:53;;;;;;;0.40;0.20;;;12.00;99.90;;;;;;5012141;28;20415;-71
2021/09/19 04:42:19;;;;;;;0.40;0.20;;;12.00;99.90;;;;;;5012792;28;20447;-71
2021/09/19 04:44:44;;;;;;;0.40;0.20;;;12.00;99.90;;;;;;5012137;28;20377;-71
2021/09/19 04:47:10;;;;;;;0.40;0.20;;;12.10;99.90;;;;;;5012532;28;20381;-71
2021/09/19 04:49:36;;;;;;;0.40;0.20;;;12.10;99.90;;;;;;5012564;28;20389;-71
2021/09/19 04:52:02;;;;;;;0.40;0.20;;;12.00;99.90;;;;;;5011612;28;20381;-71
2021/09/19 04:54:27;;;;;;;0.40;0.30;;;11.80;99.90;;;;;;5012804;28;20393;-71
2021/09/19 04:56:54;;;;;;;0.40;0.30;;;11.90;99.90;;;;;;5011539;28;20837;-71
2021/09/19 04:59:20;;;;;;;0.40;0.20;;;12.00;99.90;;;;;;5012395;28;20428;-71
2021/09/19 05:01:46;;;;;;;0.40;0.20;;;12.10;99.90;;;;;;5011474;28;20908;-71
2021/09/19 05:04:11;;;;;;;0.40;0.20;;;12.00;99.90;;;;;;5012638;28;20381;-71
2021/09/19 05:06:37;;;;;;;0.40;0.30;;;11.90;99.90;;;;;;5014670;28;20384;-71
2021/09/19 05:09:03;;;;;;;0.40;0.30;;;12.10;99.90;;;;;;5030814;28;20470;-71
2021/09/19 05:11:28;;;;;;;0.40;0.20;;;12.00;99.90;;;;;;5031856;28;20378;-71
2021/09/19 05:13:54;;;;;;;0.40;0.20;;;11.90;99.90;;;;;;5030896;28;20403;-71
2021/09/19 05:16:19;;;;;;;0.40;0.30;;;11.90;99.90;;;;;;5031774;28;20371;-71
2021/09/19 05:18:45;;;;;;;0.40;0.20;;;11.90;99.90;;;;;;5031216;28;20403;-71
2021/09/19 05:21:11;;;;;;;0.40;0.20;;;11.90;99.90;;;;;;5031691;28;20885;-71
2021/09/19 05:23:36;;;;;;;0.40;0.30;;;11.90;99.90;;;;;;5031591;28;20877;-70
2021/09/19 05:26:02;;;;;;;0.40;0.20;;;12.00;99.90;;;;;;5031174;28;20379;-70
2021/09/19 05:28:28;;;;;;;0.40;0.20;;;11.80;99.90;;;;;;5031963;28;20383;-70
2021/09/19 05:30:54;;;;;;;0.40;0.30;;;11.90;99.90;;;;;;5031067;28;20367;-70
2021/09/19 05:33:20;;;;;;;0.40;0.30;;;12.00;99.90;;;;;;5031550;28;20379;-70
2021/09/19 05:35:46;;;;;;;0.40;0.30;;;12.00;99.90;;;;;;5031056;28;20379;-70
2021/09/19 05:38:12;;;;;;;0.40;0.30;;;12.00;99.90;;;;;;5031474;28;20409;-70
2021/09/19 05:40:38;;;;;;;0.40;0.20;;;12.00;99.90;;;;;;5031760;28;20398;-70
2021/09/19 05:43:04;;;;;;;0.40;0.30;;;12.10;99.90;;;;;;5030487;28;20473;-70
2021/09/19 05:45:31;;;;;;;0.40;0.20;;;12.10;99.90;;;;;;5031491;28;20387;-70
2021/09/19 05:47:56;;;;;;;0.40;0.20;;;11.80;99.90;;;;;;5030746;28;20720;-71
2021/09/19 05:50:23;;;;;;;0.40;0.30;;;11.80;99.90;;;;;;5031397;28;20368;-71
2021/09/19 05:52:49;;;;;;;0.40;0.30;;;11.90;99.90;;;;;;5030689;28;20394;-72
2021/09/19 05:55:15;;;;;;;0.40;0.20;;;12.10;99.90;;;;;;5031390;28;20368;-71
2021/09/19 05:57:41;;;;;;;0.40;0.20;;;12.10;99.90;;;;;;5031373;28;20457;-71
2021/09/19 06:00:10;;;;;;;0.40;0.30;;;12.20;99.90;;;;;;5030696;28;20375;-71
2021/09/19 06:02:35;;;;;;;0.40;0.20;;;12.10;99.90;;;;;;5031464;28;20387;-70
2021/09/19 06:05:01;;;;;;;0.40;0.20;;;12.10;99.90;;;;;;5030367;28;20385;-71
2021/09/19 06:07:27;;;;;;;0.40;0.30;;;12.10;99.90;;;;;;5013334;28;20851;-71
2021/09/19 06:09:52;;;;;;;0.40;0.20;;;12.20;99.90;;;;;;5030575;28;20379;-71
2021/09/19 06:12:18;;;;;;;0.40;0.30;;;12.30;99.90;;;;;;5025339;28;20415;-71
2021/09/19 06:14:44;;;;;;;0.40;0.30;;;12.50;99.90;;;;;;5020805;28;20436;-73
2021/09/19 06:17:10;;;;;;;0.40;0.20;;;12.50;99.90;;;;;;5020753;28;20400;-71
2021/09/19 06:19:35;;;;;;;0.40;0.30;;;12.70;99.90;;;;;;5019966;28;20434;-71
2021/09/19 06:22:02;;;;;;;0.40;0.20;;;12.80;99.90;;;;;;5020471;28;20408;-71
2021/09/19 06:24:29;;;;;;;0.40;0.30;;;12.80;99.90;;;;;;5020561;28;20394;-73
2021/09/19 06:26:59;;;;;;;0.40;0.20;;;12.90;99.90;;;;;;5030542;28;20437;-71
2021/09/19 06:29:25;;;;;;;0.40;0.20;;;13.00;99.90;;;;;;5031641;28;20398;-71
2021/09/19 06:31:51;;;;;;;0.40;0.20;;;12.90;99.90;;;;;;5030530;28;20842;-71
2021/09/19 06:34:17;;;;;;;0.40;0.20;;;12.90;99.90;;;;;;5031556;28;20450;-71
2021/09/19 06:36:42;;;;;;;0.40;0.20;;;12.90;99.90;;;;;;5013518;28;20493;-72
2021/09/19 06:39:08;;;;;;;0.40;0.20;;;13.10;99.90;;;;;;5030886;28;20415;-72
2021/09/19 06:41:34;;;;;;;0.40;0.20;;;13.20;99.90;;;;;;5025468;28;20404;-73
2021/09/19 06:44:00;;;;;;;0.40;0.20;;;13.40;99.90;;;;;;5012599;28;20403;-72
2021/09/19 06:46:29;;;;;;;0.40;0.20;;;13.50;99.90;;;;;;5013514;28;20387;-72
2021/09/19 06:48:56;;;;;;;0.40;0.30;;;13.40;99.90;;;;;;5030719;28;20383;-72
2021/09/19 06:51:22;;;;;;;0.40;0.20;;;13.70;99.90;;;;;;5031173;28;20483;-74
2021/09/19 06:53:47;;;;;;;0.40;0.30;;;13.80;99.90;;;;;;5028660;28;20898;-72
2021/09/19 06:56:13;;;;;;;0.40;0.30;;;13.90;99.90;;;;;;5029668;28;20411;-72
2021/09/19 06:58:38;;;;;;;0.40;0.20;;;14.00;99.90;;;;;;5030846;28;20434;-71
2021/09/19 07:01:04;;;;;;;0.40;0.20;;;14.00;99.90;;;;;;5030031;28;21024;-71
2021/09/19 07:03:30;;;;;;;0.40;0.30;;;14.10;99.90;;;;;;5029949;28;20394;-73
2021/09/19 07:05:55;;;;;;;0.40;0.30;;;14.30;99.90;;;;;;5028766;28;20399;-73
2021/09/19 07:08:21;;;;;;;0.40;0.20;;;14.50;99.90;;;;;;5030837;28;20391;-71
2021/09/19 07:10:47;;;;;;;0.40;0.20;;;14.30;99.90;;;;;;5027595;28;20410;-74
2021/09/19 07:13:13;;;;;;;0.40;0.25;;;14.40;99.90;;;;;;5030122;28;20486;-72
2021/09/19 07:15:41;;;;;;;0.40;0.30;;;14.50;99.90;;;;;;5028924;28;20525;-73
2021/09/19 07:18:06;;;;;;;0.40;0.20;;;14.60;99.90;;;;;;5026256;28;20413;-72
2021/09/19 07:20:32;;;;;;;0.90;0.50;;;14.80;99.90;;;;;;5029127;28;20383;-71
2021/09/19 07:22:58;;;;;;;0.40;0.30;;;14.90;99.90;;;;;;5029682;28;20851;-71
2021/09/19 07:25:23;;;;;;;0.40;0.20;;;15.10;99.90;;;;;;5030313;28;20433;-72
2021/09/19 07:27:49;;;;;;;0.40;0.20;;;15.20;99.90;;;;;;5029708;28;20412;-73
2021/09/19 07:30:15;;;;;;;0.40;0.30;;;15.00;99.90;;;;;;5030568;28;20398;-72
2021/09/19 07:32:41;;;;;;;0.40;0.30;;;15.10;99.90;;;;;;5030172;28;20890;-73
2021/09/19 07:35:07;;;;;;;0.40;0.30;;;15.20;99.90;;;;;;5029622;28;20387;-72
2021/09/19 07:37:33;;;;;;;0.40;0.20;;;15.30;99.90;;;;;;5029981;28;20379;-71
2021/09/19 07:39:59;;;;;;;0.40;0.30;;;15.50;99.90;;;;;;5028768;28;20406;-72
2021/09/19 07:42:25;;;;;;;0.40;0.30;;;15.60;99.90;;;;;;5030065;28;20445;-72
2021/09/19 07:44:54;;;;;;;0.40;0.30;;;15.70;99.90;;;;;;5024084;28;20403;-72
2021/09/19 07:47:20;;;;;;;0.40;0.20;;;15.70;99.90;;;;;;5012199;28;20462;-72
2021/09/19 07:49:46;;;;;;;0.40;0.20;;;15.80;99.90;;;;;;5028814;28;20471;-73
2021/09/19 07:52:15;;;;;;;0.40;0.30;;;15.90;99.90;;;;;;5030256;28;20383;-72
2021/09/19 07:54:41;;;;;;;0.40;0.30;;;15.90;99.90;;;;;;5029920;28;20391;-72
2021/09/19 07:57:06;;;;;;;0.40;0.30;;;15.90;99.90;;;;;;5029117;28;20946;-72
2021/09/19 07:59:32;;;;;;;0.40;0.20;;;15.90;99.90;;;;;;5029587;28;20503;-73
2021/09/19 08:01:58;;;;;;;0.40;0.30;;;16.00;99.90;;;;;;5029224;28;20860;-72
2021/09/19 08:04:24;;;;;;;0.40;0.30;;;16.00;99.90;;;;;;5030079;28;20383;-72
2021/09/19 08:06:49;;;;;;;0.40;0.20;;;16.10;99.90;;;;;;5029266;28;20391;-71
2021/09/19 08:09:15;;;;;;;0.40;0.20;;;16.10;99.90;;;;;;5029045;28;20380;-72
2021/09/19 08:11:41;;;;;;;0.40;0.20;;;16.00;99.90;;;;;;5027098;28;20434;-72
2021/09/19 08:14:09;;;;;;;0.40;0.20;;;16.10;99.90;;;;;;5029296;28;20407;-71
2021/09/19 08:16:40;;;;;;;0.40;0.30;;;16.00;99.90;;;;;;5027878;28;20760;-72
2021/09/19 08:19:08;;;;;;;0.40;0.30;;;16.10;99.90;;;;;;5028836;28;20550;-72
2021/09/19 08:21:36;;;;;;;0.40;0.20;;;16.10;99.90;;;;;;5028769;28;20910;-72
2021/09/19 08:24:07;;;;;;;0.40;0.20;;;16.10;99.90;;;;;;5029172;28;20375;-70
2021/09/19 08:26:33;;;;;;;0.40;0.30;;;16.10;99.90;;;;;;5029015;28;20529;-72
2021/09/19 08:28:59;;;;;;;0.40;0.20;;;16.10;99.90;;;;;;5024619;28;20907;-73
2021/09/19 08:31:24;;;;;;;0.40;0.30;;;16.20;99.90;;;;;;5028438;28;20452;-72
2021/09/19 08:33:51;;;;;;;0.40;0.30;;;16.30;99.90;;;;;;5028241;28;20383;-72
2021/09/19 08:36:18;;;;;;;0.40;0.20;;;16.20;99.90;;;;;;5028813;28;20751;-72
2021/09/19 08:38:44;;;;;;;0.40;0.20;;;16.10;99.90;;;;;;5028768;28;20413;-72
2021/09/19 08:41:10;;;;;;;0.40;0.20;;;16.10;99.90;;;;;;5026984;28;20379;-72
2021/09/19 08:43:35;;;;;;;0.40;0.30;;;16.20;99.90;;;;;;5028358;28;20399;-72
2021/09/19 08:46:02;;;;;;;0.40;0.30;;;15.90;99.90;;;;;;5026869;28;20394;-72
2021/09/19 08:48:31;;;;;;;0.40;0.20;;;15.80;99.90;;;;;;5028364;28;20391;-72
2021/09/19 08:50:57;;;;;;;0.40;0.20;;;15.80;99.90;;;;;;5027235;28;20387;-73
2021/09/19 08:53:28;;;;;;;0.40;0.20;;;15.90;99.90;;;;;;5025324;28;20393;-72
2021/09/19 08:55:54;;;;;;;0.40;0.20;;;15.80;99.90;;;;;;5027633;28;20856;-73
2021/09/19 08:58:20;;;;;;;0.40;0.30;;;15.80;99.90;;;;;;5028329;28;20500;-72
2021/09/19 09:00:49;;;;;;;0.40;0.20;;;15.80;99.90;;;;;;5027236;28;20410;-73
2021/09/19 09:03:17;;;;;;;0.40;0.30;;;15.70;99.90;;;;;;5027943;28;20379;-72
2021/09/19 09:05:43;;;;;;;0.40;0.30;;;15.80;99.90;;;;;;5027824;28;20399;-72
2021/09/19 09:08:10;;;;;;;0.40;0.30;;;15.80;99.90;;;;;;5027331;28;20391;-72
2021/09/19 09:10:40;;;;;;;0.40;0.30;;;15.80;99.90;;;;;;5009447;28;20386;-72
2021/09/19 09:13:14;;;;;;;0.40;0.20;;;15.90;99.90;;;;;;5007213;28;20475;-71
2021/09/19 09:15:46;;;;;;;0.40;0.30;;;15.80;99.90;;;;;;5027705;28;20384;-72
2021/09/19 09:18:29;;;;;;;0.40;0.20;;;15.80;99.90;;;;;;5026338;28;20411;-72
2021/09/19 09:21:01;;;;;;;0.40;0.20;;;15.80;99.90;;;;;;5025781;28;20397;-73
2021/09/19 09:23:41;;;;;;;0.40;0.30;;;15.60;99.90;;;;;;5027011;28;20422;-72
2021/09/19 09:26:23;;;;;;;0.40;0.30;;;15.60;99.90;;;;;;5026377;28;20663;-73
2021/09/19 09:29:06;;;;;;;0.40;0.30;;;15.40;99.90;;;;;;5027155;28;20799;-73
2021/09/19 09:31:40;;;;;;;0.40;0.20;;;15.40;99.90;;;;;;5022453;28;20405;-72
2021/09/19 09:34:16;;;;;;;0.40;0.30;;;15.30;99.90;;;;;;5026773;28;20390;-72
2021/09/19 09:36:49;;;;;;;0.40;0.27;;;15.40;99.90;;;;;;5022890;28;20404;-73
2021/09/19 09:39:26;;;;;;;0.40;0.30;;;15.30;99.90;;;;;;5026732;28;20567;-73
2021/09/19 09:41:57;;;;;;;0.40;0.30;;;15.20;99.90;;;;;;5004482;28;20442;-71
2021/09/19 09:44:36;;;;;;;0.40;0.20;;;15.20;99.90;;;;;;5027431;28;20395;-73
2021/09/19 09:47:08;;;;;;;0.40;0.20;;;15.10;99.90;;;;;;5022175;28;20387;-70
2021/09/19 09:49:41;;;;;;;0.40;0.20;;;15.00;99.90;;;;;;5027582;28;20704;-71
2021/09/19 09:52:08;;;;;;;0.40;0.20;;;15.00;99.90;;;;;;5025943;28;20418;-71
2021/09/19 09:54:56;;;;;;;0.40;0.30;;;15.00;99.90;;;;;;5008600;28;20387;-71
2021/09/19 09:57:36;;;;;;;0.40;0.30;;;14.90;99.90;;;;;;5026513;28;20445;-71
2021/09/19 10:00:08;;;;;;;0.40;0.20;;;14.90;99.90;;;;;;5026686;28;20387;-72
2021/09/19 10:02:36;;;;;;;0.40;0.20;;;14.90;99.90;;;;;;5026760;28;20724;-73
2021/09/19 10:05:03;;;;;;;0.40;0.30;;;15.00;99.90;;;;;;5008742;28;20395;-72
2021/09/19 10:07:29;;;;;;;0.40;0.20;;;15.00;99.90;;;;;;5027190;28;20387;-72
2021/09/19 10:09:55;;;;;;;0.40;0.30;;;15.10;99.90;;;;;;5026024;28;20391;-72
2021/09/19 10:12:21;;;;;;;0.40;0.30;;;15.10;99.90;;;;;;5008262;28;20403;-72
2021/09/19 10:14:56;;;;;;;0.40;0.20;;;15.10;99.90;;;;;;5027188;28;20383;-71
2021/09/19 10:17:23;;;;;;;0.40;0.20;;;15.10;99.90;;;;;;5024224;28;20784;-71
2021/09/19 10:19:50;;;;;;;0.40;0.20;;;15.10;99.90;;;;;;5026207;28;20442;-73
2021/09/19 10:22:30;;;;;;;0.40;0.20;;;15.10;99.90;;;;;;5027257;28;20419;-72
2021/09/19 10:24:56;;;;;;;0.40;0.20;;;15.10;99.90;;;;;;5025706;28;20383;-72
2021/09/19 10:27:28;;;;;;;0.40;0.30;;;15.00;99.90;;;;;;5027125;28;20383;-73
2021/09/19 10:30:00;;;;;;;0.40;0.20;;;14.90;99.90;;;;;;5008956;28;20863;-73
2021/09/19 10:32:36;;;;;;;0.40;0.30;;;14.90;99.90;;;;;;5026918;28;20387;-71
2021/09/19 10:35:17;;;;;;;0.40;0.30;;;14.90;99.90;;;;;;5026191;28;20383;-70
2021/09/19 10:38:00;;;;;;;0.40;0.30;;;14.80;99.90;;;;;;5027574;28;20486;-71
2021/09/19 10:40:35;;;;;;;0.40;0.20;;;14.80;99.90;;;;;;5027469;28;20395;-71
2021/09/19 10:43:06;;;;;;;0.40;0.30;;;14.80;99.90;;;;;;5026500;28;20399;-71
2021/09/19 10:45:43;;;;;;;0.40;0.30;;;14.70;99.90;;;;;;5026483;28;20402;-72
2021/09/19 10:48:13;;;;;;;0.40;0.30;;;14.70;99.90;;;;;;5027097;28;21094;-72
2021/09/19 10:50:39;;;;;;;0.40;0.30;;;14.70;99.90;;;;;;5026630;28;20454;-73
2021/09/19 10:53:26;;;;;;;0.40;0.20;;;14.70;99.90;;;;;;5008148;28;20828;-72
2021/09/19 10:55:58;;;;;;;0.40;0.20;;;14.70;99.90;;;;;;5025903;28;20465;-74
2021/09/19 10:58:30;;;;;;;0.40;0.30;;;14.70;99.90;;;;;;5027234;28;20526;-72
2021/09/19 11:01:17;;;;;;;0.40;0.20;;;14.70;99.90;;;;;;5008515;28;20403;-73
2021/09/19 11:04:06;;;;;;;0.40;0.30;;;14.70;99.90;;;;;;5027056;28;20400;-73
2021/09/19 11:06:41;;;;;;;0.40;0.20;;;14.70;99.90;;;;;;5026475;28;20868;-73
2021/09/19 11:09:27;;;;;;;0.40;0.20;;;14.80;99.90;;;;;;5029330;28;20391;-72
2021/09/19 11:12:14;;;;;;;0.40;0.20;;;14.80;99.90;;;;;;5028132;28;20500;-72
2021/09/19 11:14:56;;;;;;;0.40;0.22;;;14.90;99.90;;;;;;5029870;28;20465;-70
2021/09/19 11:17:23;;;;;;;0.40;0.30;;;14.90;99.90;;;;;;5028163;28;20399;-71
2021/09/19 11:20:21;;;;;;;0.40;0.30;;;14.80;99.90;;;;;;5023000;28;21137;-72
2021/09/19 11:22:52;;;;;;;0.40;0.20;;;14.80;99.90;;;;;;5003727;28;20421;-72
2021/09/19 11:25:19;;;;;;;0.40;0.20;;;14.80;99.90;;;;;;5025693;28;20396;-72
2021/09/19 11:27:48;;;;;;;0.40;0.30;;;14.80;99.90;;;;;;5013893;28;20373;-72
2021/09/19 11:30:17;;;;;;;0.40;0.20;;;14.90;99.90;;;;;;5031701;28;20383;-72
2021/09/19 11:32:44;;;;;;;0.40;0.30;;;14.80;99.90;;;;;;5033437;28;20474;-71
2021/09/19 11:35:11;;;;;;;0.40;0.20;;;14.90;99.90;;;;;;5021113;28;20475;-72
2021/09/19 11:37:37;;;;;;;0.40;0.30;;;14.90;99.90;;;;;;5012993;28;20392;-72
2021/09/19 11:40:09;;;;;;;0.40;0.20;;;14.80;99.90;;;;;;5012344;28;20389;-72
2021/09/19 11:42:35;;;;;;;0.40;0.30;;;14.80;99.90;;;;;;5013956;28;20416;-71
2021/09/19 11:45:07;;;;;;;0.40;0.20;;;14.90;99.90;;;;;;5019013;28;20389;-72
2021/09/19 11:47:34;;;;;;;0.40;0.20;;;14.80;99.90;;;;;;5021711;28;20884;-72
2021/09/19 11:50:02;;;;;;;0.40;0.30;;;14.80;99.90;;;;;;5020909;28;20380;-71
2021/09/19 11:52:27;;;;;;;0.40;0.20;;;14.70;99.90;;;;;;5022848;28;20479;-72
2021/09/19 11:54:53;;;;;;;0.40;0.20;;;14.70;99.90;;;;;;5027129;28;20379;-73
2021/09/19 11:57:19;;;;;;;0.40;0.30;;;14.60;99.90;;;;;;5033013;28;20767;-71
2021/09/19 11:59:46;;;;;;;0.40;0.30;;;14.60;99.90;;;;;;5033054;28;20430;-72
2021/09/19 12:02:13;;;;;;;0.40;0.20;;;14.60;99.90;;;;;;5024904;28;20383;-71
2021/09/19 12:04:46;;;;;;;0.40;0.30;;;14.60;99.90;;;;;;5022902;28;20465;-72
2021/09/19 12:07:16;;;;;;;0.40;0.30;;;14.60;99.90;;;;;;5020685;28;20386;-71
2021/09/19 12:09:49;;;;;;;0.40;0.30;;;14.40;99.90;;;;;;5023194;28;20387;-71
2021/09/19 12:12:17;;;;;;;0.40;0.20;;;14.40;99.90;;;;;;5004098;28;20468;-72
2021/09/19 12:14:49;;;;;;;0.40;0.20;;;14.30;99.90;;;;;;5020042;28;20828;-71
2021/09/19 12:17:15;;;;;;;0.40;0.30;;;14.30;99.90;;;;;;5006440;28;20406;-71
2021/09/19 12:19:45;;;;;;;0.40;0.30;;;14.20;99.90;;;;;;5025821;28;20494;-72
2021/09/19 12:22:19;;;;;;;0.40;0.30;;;14.20;99.90;;;;;;5021162;28;20451;-72
2021/09/19 12:24:51;;;;;;;0.40;0.30;;;14.30;99.90;;;;;;5018145;28;20401;-71
2021/09/19 12:27:22;;;;;;;0.40;0.20;;;14.30;99.90;;;;;;5011816;28;20381;-72
2021/09/19 12:30:03;;;;;;;0.40;0.20;;;14.20;99.90;;;;;;5018744;28;20407;-71
2021/09/19 12:32:40;;;;;;;0.40;0.30;;;14.20;99.90;;;;;;5026932;28;20477;-70
2021/09/19 12:35:12;;;;;;;0.40;0.20;;;14.10;99.90;;;;;;5031707;28;20395;-70
2021/09/19 12:37:44;;;;;;;0.40;0.20;;;14.10;99.90;;;;;;5014593;28;20868;-70
2021/09/19 12:40:14;;;;;;;0.40;0.20;;;14.10;99.90;;;;;;5031195;28;20387;-70
2021/09/19 12:42:40;;;;;;;0.40;0.30;;;14.20;99.90;;;;;;5018618;28;20399;-71
2021/09/19 12:45:09;;;;;;;0.40;0.30;;;14.10;99.90;;;;;;5021588;28;20405;-71
2021/09/19 12:47:35;;;;;;;0.40;0.30;;;14.10;99.90;;;;;;5029190;28;20442;-71
2021/09/19 12:50:01;;;;;;;0.40;0.25;;;13.90;99.90;;;;;;5023526;28;20395;-71
2021/09/19 12:52:31;;;;;;;0.40;0.30;;;14.00;99.90;;;;;;5019780;28;20391;-72